createdAt,value
2018-05-31T18:58:29.293Z,20.50
2018-05-31T19:00:57.338Z,20.40
2018-05-31T19:03:25.482Z,20.40
2018-05-31T19:05:53.618Z,20.30
2018-05-31T19:08:22.526Z,20.20
2018-05-31T19:10:50.580Z,20.10
2018-05-31T19:13:24.506Z,20.10
2018-05-31T19:15:52.553Z,20.10
2018-05-31T19:21:24.398Z,19.90
2018-05-31T19:23:52.482Z,20.00
2018-05-31T19:26:20.566Z,19.90
2018-05-31T19:28:48.819Z,19.90
2018-05-31T19:31:17.643Z,19.90
2018-05-31T19:33:45.671Z,19.80
2018-05-31T19:36:19.410Z,19.80
2018-05-31T19:38:47.437Z,19.80
2018-05-31T19:41:15.450Z,19.80
2018-05-31T19:43:48.981Z,19.70
2018-05-31T19:46:17.786Z,19.70
2018-05-31T19:48:45.862Z,19.60
2018-05-31T19:54:12.829Z,19.60
2018-05-31T19:56:40.886Z,19.60
2018-05-31T19:59:15.342Z,19.50
2018-05-31T20:01:49.130Z,19.40
2018-05-31T20:04:17.146Z,19.40
2018-05-31T20:06:45.170Z,19.40
2018-05-31T20:09:13.194Z,19.30
2018-05-31T20:11:41.974Z,19.20
2018-05-31T20:14:09.998Z,19.20
2018-05-31T20:16:38.014Z,19.20
2018-05-31T20:19:06.038Z,19.20
2018-05-31T20:21:34.954Z,19.20
2018-05-31T20:24:02.970Z,19.10
2018-05-31T20:26:31.784Z,19.10
2018-05-31T20:29:00.586Z,19.00
2018-05-31T20:31:28.614Z,19.00
2018-05-31T20:33:56.638Z,19.00
2018-05-31T20:36:24.666Z,19.00
2018-05-31T20:38:53.476Z,18.90
2018-05-31T20:41:21.490Z,18.90
2018-05-31T20:43:49.518Z,18.90
2018-05-31T20:46:17.546Z,18.80
2018-05-31T20:48:45.570Z,18.80
2018-05-31T20:51:13.646Z,18.70
2018-05-31T20:53:41.643Z,18.70
2018-05-31T20:56:09.657Z,18.70
2018-05-31T20:58:37.668Z,18.70
2018-05-31T21:01:05.681Z,18.60
2018-05-31T21:03:34.478Z,18.60
2018-05-31T21:06:02.501Z,18.50
2018-05-31T21:08:30.542Z,18.50
2018-05-31T21:10:58.566Z,18.50
2018-05-31T21:13:27.389Z,18.40
2018-05-31T21:15:55.486Z,18.40
2018-05-31T21:18:23.525Z,18.30
2018-05-31T21:20:51.538Z,18.30
2018-05-31T21:23:19.673Z,18.30
2018-05-31T21:25:48.462Z,18.20
2018-05-31T21:28:16.537Z,18.20
2018-05-31T21:30:44.601Z,18.20
2018-05-31T21:33:12.610Z,18.10
2018-05-31T21:35:40.709Z,18.10
2018-05-31T21:38:09.397Z,18.10
2018-05-31T21:40:38.185Z,18.10
2018-05-31T21:43:06.285Z,18.00
2018-05-31T21:45:34.369Z,18.00
2018-05-31T21:48:02.385Z,18.00
2018-05-31T21:50:31.177Z,17.90
2018-05-31T21:52:59.193Z,17.90
2018-05-31T21:55:27.209Z,17.90
2018-05-31T21:57:55.267Z,17.90
2018-05-31T22:00:38.521Z,17.80
2018-05-31T22:03:07.313Z,17.80
2018-05-31T22:05:36.093Z,17.80
2018-05-31T22:08:04.101Z,17.80
2018-05-31T22:10:32.121Z,17.80
2018-05-31T22:13:00.125Z,17.70
2018-05-31T22:15:28.133Z,17.70
2018-05-31T22:17:56.169Z,17.70
2018-05-31T22:20:24.177Z,17.70
2018-05-31T22:22:52.189Z,17.70
2018-05-31T22:25:20.964Z,17.60
2018-05-31T22:27:48.973Z,17.60
2018-05-31T22:30:17.001Z,17.60
2018-05-31T22:32:45.008Z,17.60
2018-05-31T22:35:13.023Z,17.50
2018-05-31T22:37:41.057Z,17.50
2018-05-31T22:40:09.081Z,17.50
2018-05-31T22:42:37.115Z,17.50
2018-05-31T22:45:05.121Z,17.50
2018-05-31T22:47:33.129Z,17.50
2018-05-31T22:50:01.141Z,17.40
2018-05-31T22:52:29.157Z,17.40
2018-05-31T22:54:57.185Z,17.40
2018-05-31T22:57:25.215Z,17.40
2018-05-31T22:59:53.217Z,17.40
2018-05-31T23:02:21.237Z,17.40
2018-05-31T23:04:49.253Z,17.40
2018-05-31T23:07:17.284Z,17.40
2018-05-31T23:09:46.813Z,17.30
2018-05-31T23:12:15.545Z,17.30
2018-05-31T23:14:45.321Z,17.30
2018-05-31T23:17:13.337Z,17.30
2018-05-31T23:19:42.117Z,17.30
2018-05-31T23:22:10.905Z,17.20
2018-05-31T23:24:39.676Z,17.20
2018-05-31T23:27:07.701Z,17.20
2018-05-31T23:29:35.739Z,17.20
2018-05-31T23:32:04.520Z,17.10
2018-05-31T23:34:33.297Z,17.10
2018-05-31T23:37:01.305Z,17.10
2018-05-31T23:39:29.320Z,17.10
2018-05-31T23:41:57.353Z,17.10
2018-05-31T23:44:25.368Z,17.10
2018-05-31T23:46:53.404Z,17.00
2018-05-31T23:49:21.432Z,17.00
2018-05-31T23:51:50.208Z,16.90
2018-05-31T23:54:18.229Z,16.90
2018-05-31T23:56:46.232Z,16.90
2018-05-31T23:59:14.252Z,16.90
